ASA274 PANC-KGEG
Flight info
| Callsign | ASA274 |
|---|---|
| Flight time | 3h 28m |
| Altitude | 33000 |
| Route | NOEND4 NOEND LAIRE BKA ANN POWOL YVR DOAME |
| Aircraft | B739/M-SDE2E3FGHIRWXY/LB1 |
Departure
| Time | 2026-04-25 02:42 |
|---|---|
| Airport | Ted Stevens Anchorage International Airport (PANC) |
Arrival
| Time | 2026-04-25 06:10 |
|---|---|
| Airport | Spokane International Airport (KGEG) |
| Time | Latitude | Longitude | Altitude | Speed | Heading |
|---|---|---|---|---|---|
| 2026-04-25 02:16 | 61.17577 | -149.98512 | 108 ft | 0 kts | 105° |
| 2026-04-25 02:30 | 61.17581 | -149.98543 | 107 ft | 3 kts | 107° |
| 2026-04-25 02:30 | 61.17589 | -149.98579 | 106 ft | 3 kts | 109° |
| 2026-04-25 02:30 | 61.17595 | -149.98615 | 105 ft | 3 kts | 109° |
| 2026-04-25 02:31 | 61.17601 | -149.98651 | 104 ft | 3 kts | 110° |
| 2026-04-25 02:31 | 61.17611 | -149.98684 | 104 ft | 3 kts | 139° |
| 2026-04-25 02:31 | 61.17627 | -149.98705 | 104 ft | 3 kts | 167° |
| 2026-04-25 02:31 | 61.17632 | -149.98707 | 103 ft | 0 kts | 168° |
| 2026-04-25 02:36 | 61.17630 | -149.98706 | 104 ft | 2 kts | 168° |
| 2026-04-25 02:37 | 61.17604 | -149.98694 | 102 ft | 6 kts | 167° |
| 2026-04-25 02:37 | 61.17558 | -149.98665 | 105 ft | 8 kts | 160° |
| 2026-04-25 02:37 | 61.17496 | -149.98617 | 106 ft | 11 kts | 159° |
| 2026-04-25 02:37 | 61.17421 | -149.98581 | 109 ft | 12 kts | 188° |
| 2026-04-25 02:38 | 61.17348 | -149.98667 | 112 ft | 13 kts | 213° |
| 2026-04-25 02:38 | 61.17272 | -149.98768 | 115 ft | 13 kts | 213° |
| 2026-04-25 02:38 | 61.17201 | -149.98884 | 118 ft | 13 kts | 230° |
| 2026-04-25 02:38 | 61.17146 | -149.99030 | 123 ft | 13 kts | 232° |
| 2026-04-25 02:39 | 61.17126 | -149.99211 | 125 ft | 14 kts | 270° |
| 2026-04-25 02:39 | 61.17126 | -149.99434 | 127 ft | 16 kts | 270° |
| 2026-04-25 02:39 | 61.17125 | -149.99629 | 129 ft | 5 kts | 270° |
| 2026-04-25 02:39 | 61.17125 | -149.99639 | 129 ft | 0 kts | 270° |
| 2026-04-25 02:40 | 61.17125 | -149.99644 | 129 ft | 1 kts | 270° |
| 2026-04-25 02:40 | 61.17125 | -149.99683 | 129 ft | 4 kts | 271° |
| 2026-04-25 02:40 | 61.17126 | -149.99765 | 128 ft | 7 kts | 270° |
| 2026-04-25 02:40 | 61.17142 | -149.99864 | 126 ft | 8 kts | 316° |
| 2026-04-25 02:41 | 61.17190 | -149.99904 | 132 ft | 7 kts | 344° |
| 2026-04-25 02:41 | 61.17368 | -150.00006 | 138 ft | 58 kts | 345° |
| 2026-04-25 02:41 | 61.17978 | -150.00351 | 141 ft | 124 kts | 345° |
| 2026-04-25 02:41 | 61.19007 | -150.00961 | 204 ft | 180 kts | 341° |
| 2026-04-25 02:42 | 61.20277 | -150.01638 | 992 ft | 186 kts | 346° |
| 2026-04-25 02:42 | 61.21451 | -150.02424 | 2218 ft | 182 kts | 336° |
| 2026-04-25 02:42 | 61.22604 | -150.03973 | 2537 ft | 216 kts | 324° |
| 2026-04-25 02:42 | 61.23833 | -150.05992 | 3002 ft | 229 kts | 322° |
| 2026-04-25 02:43 | 61.25109 | -150.08187 | 3463 ft | 239 kts | 322° |
| 2026-04-25 02:43 | 61.26397 | -150.10319 | 4077 ft | 243 kts | 323° |
| 2026-04-25 02:43 | 61.27858 | -150.12326 | 4008 ft | 253 kts | 341° |
| 2026-04-25 02:43 | 61.29557 | -150.12766 | 4193 ft | 246 kts | 14° |
| 2026-04-25 02:44 | 61.31117 | -150.11463 | 4759 ft | 242 kts | 40° |
| 2026-04-25 02:44 | 61.32368 | -150.09140 | 5401 ft | 242 kts | 52° |
| 2026-04-25 02:44 | 61.33526 | -150.06584 | 6161 ft | 243 kts | 54° |
| 2026-04-25 02:44 | 61.34676 | -150.03981 | 6842 ft | 246 kts | 59° |
| 2026-04-25 02:45 | 61.35381 | -150.00848 | 7428 ft | 237 kts | 88° |
| 2026-04-25 02:45 | 61.35263 | -149.97516 | 7806 ft | 244 kts | 114° |
| 2026-04-25 02:45 | 61.34399 | -149.94457 | 8205 ft | 252 kts | 132° |
| 2026-04-25 02:45 | 61.33219 | -149.91773 | 8876 ft | 257 kts | 136° |
| 2026-04-25 02:46 | 61.32079 | -149.89326 | 9421 ft | 264 kts | 136° |
| 2026-04-25 02:46 | 61.30844 | -149.86650 | 10035 ft | 271 kts | 137° |
| 2026-04-25 02:46 | 61.29495 | -149.83693 | 10363 ft | 289 kts | 136° |
| 2026-04-25 02:46 | 61.28068 | -149.80547 | 10555 ft | 310 kts | 136° |
| 2026-04-25 02:47 | 61.26694 | -149.76893 | 10676 ft | 335 kts | 120° |
| 2026-04-25 02:47 | 61.25920 | -149.72167 | 10862 ft | 358 kts | 107° |
| 2026-04-25 02:47 | 61.25302 | -149.67028 | 11065 ft | 374 kts | 107° |
| 2026-04-25 02:47 | 61.24659 | -149.61739 | 11500 ft | 381 kts | 107° |
| 2026-04-25 02:48 | 61.24082 | -149.56322 | 12092 ft | 384 kts | 104° |
| 2026-04-25 02:48 | 61.23561 | -149.50857 | 12731 ft | 388 kts | 104° |
| 2026-04-25 02:48 | 61.23030 | -149.45346 | 13288 ft | 391 kts | 105° |
| 2026-04-25 02:48 | 61.22480 | -149.39794 | 13827 ft | 396 kts | 105° |
| 2026-04-25 02:49 | 61.21925 | -149.34187 | 14427 ft | 396 kts | 105° |
| 2026-04-25 02:49 | 61.21385 | -149.28584 | 14969 ft | 398 kts | 105° |
| 2026-04-25 02:49 | 61.20843 | -149.22918 | 15384 ft | 404 kts | 105° |
| 2026-04-25 02:49 | 61.20294 | -149.17189 | 16036 ft | 404 kts | 105° |
| 2026-04-25 02:50 | 61.19779 | -149.11834 | 16577 ft | 406 kts | 106° |
| 2026-04-25 02:50 | 61.19185 | -149.06016 | 17036 ft | 411 kts | 107° |
| 2026-04-25 02:50 | 61.18627 | -149.00257 | 17659 ft | 412 kts | 107° |
| 2026-04-25 02:50 | 61.18068 | -148.94440 | 18236 ft | 412 kts | 107° |
| 2026-04-25 02:51 | 61.17500 | -148.88582 | 18704 ft | 414 kts | 108° |
| 2026-04-25 02:51 | 61.16946 | -148.82945 | 19073 ft | 416 kts | 108° |
| 2026-04-25 02:51 | 61.16363 | -148.77078 | 19454 ft | 418 kts | 108° |
| 2026-04-25 02:51 | 61.15786 | -148.71288 | 19864 ft | 419 kts | 109° |
| 2026-04-25 02:52 | 61.15190 | -148.65362 | 20265 ft | 423 kts | 109° |
| 2026-04-25 02:52 | 61.14589 | -148.59393 | 20671 ft | 425 kts | 109° |
| 2026-04-25 02:52 | 61.13981 | -148.53396 | 21007 ft | 428 kts | 110° |
| 2026-04-25 02:52 | 61.13396 | -148.47795 | 21419 ft | 427 kts | 112° |
| 2026-04-25 02:53 | 61.12355 | -148.42167 | 21811 ft | 415 kts | 124° |
| 2026-04-25 02:53 | 61.11020 | -148.36864 | 22237 ft | 416 kts | 126° |
| 2026-04-25 02:53 | 61.09666 | -148.31546 | 22604 ft | 420 kts | 126° |
| 2026-04-25 02:53 | 61.08304 | -148.26197 | 23019 ft | 422 kts | 126° |
| 2026-04-25 02:54 | 61.06940 | -148.20807 | 23469 ft | 422 kts | 126° |
| 2026-04-25 02:54 | 61.05584 | -148.15422 | 23813 ft | 425 kts | 126° |
| 2026-04-25 02:54 | 61.04224 | -148.10000 | 24102 ft | 428 kts | 126° |
| 2026-04-25 02:54 | 61.02851 | -148.04526 | 24364 ft | 430 kts | 126° |
| 2026-04-25 02:55 | 61.01480 | -147.99048 | 24679 ft | 431 kts | 126° |
| 2026-04-25 02:55 | 61.00110 | -147.93575 | 25132 ft | 426 kts | 126° |
| 2026-04-25 02:55 | 60.98771 | -147.88217 | 26092 ft | 411 kts | 126° |
| 2026-04-25 02:55 | 60.97486 | -147.83062 | 27101 ft | 397 kts | 127° |
| 2026-04-25 02:56 | 60.96249 | -147.78106 | 28177 ft | 381 kts | 127° |
| 2026-04-25 02:56 | 60.95059 | -147.73359 | 29128 ft | 371 kts | 128° |
| 2026-04-25 02:56 | 60.93854 | -147.68621 | 29496 ft | 374 kts | 128° |
| 2026-04-25 02:56 | 60.92637 | -147.63883 | 29727 ft | 378 kts | 129° |
| 2026-04-25 02:57 | 60.91398 | -147.59061 | 30052 ft | 381 kts | 128° |
| 2026-04-25 02:57 | 60.90165 | -147.54254 | 30371 ft | 382 kts | 128° |
| 2026-04-25 02:57 | 60.89339 | -147.51036 | 30558 ft | 384 kts | 128° |
| 2026-04-25 02:57 | 60.87672 | -147.44543 | 30915 ft | 386 kts | 128° |
| 2026-04-25 02:58 | 60.86841 | -147.41308 | 31092 ft | 387 kts | 128° |
| 2026-04-25 02:58 | 60.85583 | -147.36416 | 31345 ft | 389 kts | 128° |
| 2026-04-25 02:58 | 60.84316 | -147.31502 | 31568 ft | 391 kts | 128° |
| 2026-04-25 02:58 | 60.83039 | -147.26561 | 31808 ft | 393 kts | 128° |
| 2026-04-25 02:59 | 60.81756 | -147.21604 | 32052 ft | 394 kts | 128° |
| 2026-04-25 02:59 | 60.80466 | -147.16631 | 32275 ft | 396 kts | 128° |
| 2026-04-25 02:59 | 60.79171 | -147.11652 | 32499 ft | 397 kts | 128° |
| 2026-04-25 02:59 | 60.77868 | -147.06650 | 32720 ft | 399 kts | 128° |
| 2026-04-25 03:00 | 60.76558 | -147.01634 | 32942 ft | 400 kts | 128° |
| 2026-04-25 03:00 | 60.75240 | -146.96601 | 33164 ft | 402 kts | 128° |
| 2026-04-25 03:00 | 60.73920 | -146.91567 | 33362 ft | 403 kts | 128° |
| 2026-04-25 03:00 | 60.72590 | -146.86513 | 33566 ft | 405 kts | 128° |
| 2026-04-25 03:01 | 60.71254 | -146.81445 | 33763 ft | 406 kts | 128° |
| 2026-04-25 03:01 | 60.69912 | -146.76361 | 33962 ft | 407 kts | 128° |
| 2026-04-25 03:01 | 60.68562 | -146.71265 | 34144 ft | 408 kts | 128° |
| 2026-04-25 03:01 | 60.67211 | -146.66173 | 34306 ft | 410 kts | 128° |
| 2026-04-25 03:02 | 60.65847 | -146.61047 | 34448 ft | 411 kts | 128° |
| 2026-04-25 03:02 | 60.64485 | -146.55935 | 34629 ft | 412 kts | 128° |
| 2026-04-25 03:02 | 60.63114 | -146.50800 | 34804 ft | 412 kts | 128° |
| 2026-04-25 03:02 | 60.61759 | -146.45740 | 34944 ft | 413 kts | 128° |
| 2026-04-25 03:03 | 60.60432 | -146.40793 | 35101 ft | 414 kts | 128° |
| 2026-04-25 03:03 | 60.59080 | -146.35768 | 35276 ft | 414 kts | 128° |
| 2026-04-25 03:03 | 60.57793 | -146.30994 | 35421 ft | 415 kts | 128° |
| 2026-04-25 03:03 | 60.56407 | -146.25862 | 35554 ft | 415 kts | 128° |
| 2026-04-25 03:04 | 60.55021 | -146.20744 | 35728 ft | 416 kts | 127° |
| 2026-04-25 03:04 | 60.53623 | -146.15593 | 35887 ft | 416 kts | 127° |
| 2026-04-25 03:04 | 60.52224 | -146.10451 | 36034 ft | 417 kts | 127° |
| 2026-04-25 03:05 | 60.49417 | -146.00166 | 36347 ft | 417 kts | 127° |
| 2026-04-25 03:05 | 60.48005 | -145.95012 | 36482 ft | 418 kts | 127° |
| 2026-04-25 03:05 | 60.46593 | -145.89866 | 36637 ft | 418 kts | 127° |
| 2026-04-25 03:05 | 60.45176 | -145.84718 | 36781 ft | 418 kts | 127° |
| 2026-04-25 03:06 | 60.43759 | -145.79579 | 36920 ft | 418 kts | 127° |
| 2026-04-25 03:06 | 60.42335 | -145.74427 | 37072 ft | 418 kts | 127° |
| 2026-04-25 03:06 | 60.40918 | -145.69309 | 37209 ft | 418 kts | 127° |
| 2026-04-25 03:06 | 60.39499 | -145.64203 | 37252 ft | 420 kts | 127° |
| 2026-04-25 03:07 | 60.36617 | -145.53867 | 37267 ft | 423 kts | 127° |
| 2026-04-25 03:07 | 60.33712 | -145.43487 | 37264 ft | 426 kts | 127° |
| 2026-04-25 03:08 | 60.30787 | -145.33083 | 37264 ft | 427 kts | 127° |
| 2026-04-25 03:08 | 60.27842 | -145.22652 | 37261 ft | 428 kts | 127° |
| 2026-04-25 03:09 | 60.24892 | -145.12248 | 37251 ft | 427 kts | 127° |
| 2026-04-25 03:09 | 60.21938 | -145.01884 | 37256 ft | 426 kts | 127° |
| 2026-04-25 03:10 | 60.19007 | -144.91643 | 37249 ft | 425 kts | 127° |
| 2026-04-25 03:10 | 60.16077 | -144.81452 | 37239 ft | 423 kts | 127° |
| 2026-04-25 03:11 | 60.13134 | -144.71266 | 37259 ft | 421 kts | 127° |
| 2026-04-25 03:11 | 60.10195 | -144.61137 | 37254 ft | 419 kts | 127° |
| 2026-04-25 03:12 | 60.07260 | -144.51069 | 37254 ft | 418 kts | 127° |
| 2026-04-25 03:12 | 60.04319 | -144.41025 | 37260 ft | 418 kts | 127° |
| 2026-04-25 03:13 | 60.01375 | -144.31013 | 37260 ft | 418 kts | 127° |
| 2026-04-25 03:13 | 59.98422 | -144.21016 | 37266 ft | 418 kts | 127° |
| 2026-04-25 03:14 | 59.95463 | -144.11038 | 37265 ft | 419 kts | 127° |
| 2026-04-25 03:14 | 59.92480 | -144.01026 | 37269 ft | 420 kts | 127° |
| 2026-04-25 03:15 | 59.89488 | -143.91024 | 37273 ft | 420 kts | 127° |
| 2026-04-25 03:15 | 59.86483 | -143.81024 | 37274 ft | 421 kts | 127° |
| 2026-04-25 03:16 | 59.83467 | -143.71029 | 37279 ft | 421 kts | 127° |
| 2026-04-25 03:16 | 59.80450 | -143.61072 | 37278 ft | 422 kts | 127° |
| 2026-04-25 03:17 | 59.77426 | -143.51135 | 37285 ft | 422 kts | 127° |
| 2026-04-25 03:17 | 59.74547 | -143.41716 | 37281 ft | 421 kts | 127° |
| 2026-04-25 03:18 | 59.71622 | -143.32183 | 37282 ft | 421 kts | 127° |
| 2026-04-25 03:18 | 59.68678 | -143.22632 | 37281 ft | 420 kts | 127° |
| 2026-04-25 03:19 | 59.65627 | -143.12771 | 37287 ft | 420 kts | 127° |
| 2026-04-25 03:19 | 59.62569 | -143.02929 | 37289 ft | 419 kts | 127° |
| 2026-04-25 03:20 | 59.59514 | -142.93142 | 37292 ft | 419 kts | 127° |
| 2026-04-25 03:20 | 59.56450 | -142.83363 | 37296 ft | 419 kts | 127° |
| 2026-04-25 03:21 | 59.53378 | -142.73604 | 37301 ft | 419 kts | 127° |
| 2026-04-25 03:21 | 59.50297 | -142.63856 | 37300 ft | 419 kts | 127° |
| 2026-04-25 03:22 | 59.47261 | -142.54289 | 37305 ft | 420 kts | 127° |
| 2026-04-25 03:22 | 59.44161 | -142.44560 | 37305 ft | 420 kts | 127° |
| 2026-04-25 03:23 | 59.41049 | -142.34834 | 37317 ft | 421 kts | 127° |
| 2026-04-25 03:23 | 59.37952 | -142.25196 | 37314 ft | 421 kts | 127° |
| 2026-04-25 03:24 | 59.34816 | -142.15476 | 37309 ft | 422 kts | 128° |
| 2026-04-25 03:24 | 59.31674 | -142.05778 | 37311 ft | 422 kts | 128° |
| 2026-04-25 03:25 | 59.28525 | -141.96100 | 37314 ft | 421 kts | 128° |
| 2026-04-25 03:25 | 59.25375 | -141.86456 | 37316 ft | 421 kts | 128° |
| 2026-04-25 03:26 | 59.22222 | -141.76844 | 37317 ft | 421 kts | 128° |
| 2026-04-25 03:26 | 59.19058 | -141.67236 | 37316 ft | 421 kts | 128° |
| 2026-04-25 03:27 | 59.15883 | -141.57634 | 37319 ft | 421 kts | 128° |
| 2026-04-25 03:27 | 59.12705 | -141.48064 | 37325 ft | 421 kts | 128° |
| 2026-04-25 03:28 | 59.09517 | -141.38503 | 37324 ft | 421 kts | 128° |
| 2026-04-25 03:28 | 59.06321 | -141.28956 | 37326 ft | 421 kts | 128° |
| 2026-04-25 03:29 | 59.03122 | -141.19439 | 37327 ft | 421 kts | 128° |
| 2026-04-25 03:29 | 58.99919 | -141.09946 | 37328 ft | 421 kts | 128° |
| 2026-04-25 03:30 | 58.96705 | -141.00461 | 37329 ft | 421 kts | 128° |
| 2026-04-25 03:30 | 58.93487 | -140.91000 | 37336 ft | 421 kts | 128° |
| 2026-04-25 03:31 | 58.90262 | -140.81557 | 37334 ft | 421 kts | 128° |
| 2026-04-25 03:31 | 58.87028 | -140.72125 | 37342 ft | 421 kts | 128° |
| 2026-04-25 03:32 | 58.83791 | -140.62715 | 37339 ft | 421 kts | 128° |
| 2026-04-25 03:32 | 58.80542 | -140.53313 | 37337 ft | 421 kts | 128° |
| 2026-04-25 03:33 | 58.77293 | -140.44045 | 37339 ft | 420 kts | 128° |
| 2026-04-25 03:33 | 58.74053 | -140.34905 | 37341 ft | 420 kts | 128° |
| 2026-04-25 03:34 | 58.70750 | -140.25614 | 37344 ft | 420 kts | 128° |
| 2026-04-25 03:34 | 58.67467 | -140.16399 | 37355 ft | 420 kts | 128° |
| 2026-04-25 03:35 | 58.64159 | -140.07148 | 37345 ft | 420 kts | 128° |
| 2026-04-25 03:35 | 58.60862 | -139.97960 | 37346 ft | 420 kts | 128° |
| 2026-04-25 03:36 | 58.57538 | -139.88733 | 37349 ft | 420 kts | 128° |
| 2026-04-25 03:36 | 58.54220 | -139.79557 | 37352 ft | 419 kts | 128° |
| 2026-04-25 03:37 | 58.50889 | -139.70384 | 37353 ft | 419 kts | 129° |
| 2026-04-25 03:37 | 58.47552 | -139.61226 | 37355 ft | 420 kts | 129° |
| 2026-04-25 03:38 | 58.44212 | -139.52098 | 37357 ft | 420 kts | 129° |
| 2026-04-25 03:38 | 58.40883 | -139.43034 | 37355 ft | 420 kts | 129° |
| 2026-04-25 03:39 | 58.37548 | -139.33989 | 37362 ft | 420 kts | 129° |
| 2026-04-25 03:39 | 58.34186 | -139.24902 | 37362 ft | 420 kts | 129° |
| 2026-04-25 03:40 | 58.30840 | -139.15896 | 37363 ft | 420 kts | 129° |
| 2026-04-25 03:40 | 58.27463 | -139.06841 | 37362 ft | 420 kts | 129° |
| 2026-04-25 03:41 | 58.24073 | -138.97784 | 37359 ft | 420 kts | 129° |
| 2026-04-25 03:41 | 58.20683 | -138.88762 | 37364 ft | 420 kts | 129° |
| 2026-04-25 03:42 | 58.17290 | -138.79766 | 37361 ft | 420 kts | 129° |
| 2026-04-25 03:42 | 58.13881 | -138.70761 | 37364 ft | 420 kts | 129° |
| 2026-04-25 03:43 | 58.10471 | -138.61789 | 37369 ft | 419 kts | 129° |
| 2026-04-25 03:43 | 58.07061 | -138.52848 | 37369 ft | 419 kts | 129° |
| 2026-04-25 03:44 | 58.03665 | -138.43979 | 37369 ft | 419 kts | 129° |
| 2026-04-25 03:44 | 58.00246 | -138.35082 | 37372 ft | 419 kts | 129° |
| 2026-04-25 03:45 | 57.96826 | -138.26217 | 37374 ft | 419 kts | 129° |
| 2026-04-25 03:45 | 57.93402 | -138.17371 | 37372 ft | 418 kts | 129° |
| 2026-04-25 03:46 | 57.90544 | -138.10015 | 37372 ft | 418 kts | 129° |
| 2026-04-25 03:46 | 57.87102 | -138.01185 | 37372 ft | 418 kts | 129° |
| 2026-04-25 03:47 | 57.83662 | -137.92392 | 37374 ft | 418 kts | 129° |
| 2026-04-25 03:47 | 57.80212 | -137.83607 | 37376 ft | 418 kts | 129° |
| 2026-04-25 03:48 | 57.76756 | -137.74840 | 37373 ft | 418 kts | 129° |
| 2026-04-25 03:48 | 57.73299 | -137.66100 | 37375 ft | 418 kts | 129° |
| 2026-04-25 03:49 | 57.69827 | -137.57353 | 37373 ft | 418 kts | 129° |
| 2026-04-25 03:49 | 57.66352 | -137.48634 | 37374 ft | 418 kts | 129° |
| 2026-04-25 03:50 | 57.62878 | -137.39947 | 37374 ft | 418 kts | 129° |
| 2026-04-25 03:50 | 57.59391 | -137.31259 | 37377 ft | 418 kts | 129° |
| 2026-04-25 03:51 | 57.56005 | -137.22853 | 37376 ft | 418 kts | 129° |
| 2026-04-25 03:51 | 57.52578 | -137.14374 | 37376 ft | 418 kts | 129° |
| 2026-04-25 03:52 | 57.49068 | -137.05723 | 37380 ft | 418 kts | 129° |
| 2026-04-25 03:52 | 57.45569 | -136.97129 | 37379 ft | 418 kts | 129° |
| 2026-04-25 03:53 | 57.42048 | -136.88511 | 37380 ft | 418 kts | 129° |
| 2026-04-25 03:53 | 57.38525 | -136.79921 | 37381 ft | 418 kts | 129° |
| 2026-04-25 03:54 | 57.35019 | -136.71400 | 37384 ft | 419 kts | 129° |
| 2026-04-25 03:54 | 57.31458 | -136.62779 | 37384 ft | 419 kts | 129° |
| 2026-04-25 03:55 | 57.27934 | -136.54275 | 37384 ft | 419 kts | 129° |
| 2026-04-25 03:55 | 57.24385 | -136.45743 | 37381 ft | 419 kts | 129° |
| 2026-04-25 03:56 | 57.20934 | -136.37476 | 37381 ft | 419 kts | 129° |
| 2026-04-25 03:56 | 57.17367 | -136.28962 | 37384 ft | 419 kts | 129° |
| 2026-04-25 03:57 | 57.13796 | -136.20465 | 37385 ft | 419 kts | 129° |
| 2026-04-25 03:57 | 57.10222 | -136.11992 | 37385 ft | 420 kts | 129° |
| 2026-04-25 03:58 | 57.06630 | -136.03507 | 37387 ft | 420 kts | 129° |
| 2026-04-25 03:58 | 57.03030 | -135.95033 | 37394 ft | 420 kts | 129° |
| 2026-04-25 03:59 | 56.99424 | -135.86573 | 37394 ft | 421 kts | 129° |
| 2026-04-25 03:59 | 56.95857 | -135.78235 | 37395 ft | 422 kts | 129° |
| 2026-04-25 04:00 | 56.92229 | -135.69782 | 37393 ft | 422 kts | 129° |
| 2026-04-25 04:00 | 56.88569 | -135.61280 | 37396 ft | 423 kts | 129° |
| 2026-04-25 04:01 | 56.84945 | -135.52875 | 37398 ft | 424 kts | 128° |
| 2026-04-25 04:01 | 56.81360 | -135.44334 | 37397 ft | 424 kts | 128° |
| 2026-04-25 04:02 | 56.77794 | -135.35784 | 37392 ft | 424 kts | 128° |
| 2026-04-25 04:02 | 56.74241 | -135.27313 | 37394 ft | 423 kts | 128° |
| 2026-04-25 04:03 | 56.70817 | -135.19193 | 37394 ft | 423 kts | 128° |
| 2026-04-25 04:03 | 56.67283 | -135.10848 | 37372 ft | 423 kts | 128° |
| 2026-04-25 04:04 | 56.63686 | -135.02388 | 37382 ft | 423 kts | 128° |
| 2026-04-25 04:04 | 56.60127 | -134.94045 | 37382 ft | 424 kts | 128° |
| 2026-04-25 04:05 | 56.56570 | -134.85734 | 37376 ft | 426 kts | 128° |
| 2026-04-25 04:05 | 56.52926 | -134.77251 | 37380 ft | 427 kts | 128° |
| 2026-04-25 04:06 | 56.49266 | -134.68759 | 37366 ft | 429 kts | 128° |
| 2026-04-25 04:06 | 56.45585 | -134.60250 | 37365 ft | 431 kts | 128° |
| 2026-04-25 04:07 | 56.41876 | -134.51704 | 37369 ft | 432 kts | 128° |
| 2026-04-25 04:07 | 56.38171 | -134.43200 | 37364 ft | 434 kts | 128° |
| 2026-04-25 04:08 | 56.34410 | -134.34597 | 37357 ft | 435 kts | 128° |
| 2026-04-25 04:08 | 56.30681 | -134.26097 | 37353 ft | 435 kts | 128° |
| 2026-04-25 04:09 | 56.26921 | -134.17556 | 37343 ft | 436 kts | 128° |
| 2026-04-25 04:09 | 56.23218 | -134.09174 | 37351 ft | 436 kts | 128° |
| 2026-04-25 04:10 | 56.19439 | -134.00651 | 37335 ft | 436 kts | 128° |
| 2026-04-25 04:10 | 56.15655 | -133.92147 | 37342 ft | 436 kts | 128° |
| 2026-04-25 04:11 | 56.09934 | -133.79343 | 37332 ft | 437 kts | 128° |
| 2026-04-25 04:12 | 56.06157 | -133.70930 | 37337 ft | 437 kts | 128° |
| 2026-04-25 04:12 | 56.02340 | -133.62454 | 37339 ft | 437 kts | 128° |
| 2026-04-25 04:13 | 55.98515 | -133.53992 | 37344 ft | 438 kts | 128° |
| 2026-04-25 04:13 | 55.94680 | -133.45537 | 37348 ft | 439 kts | 128° |
| 2026-04-25 04:14 | 55.90832 | -133.37081 | 37350 ft | 439 kts | 128° |
| 2026-04-25 04:14 | 55.86982 | -133.28651 | 37350 ft | 440 kts | 128° |
| 2026-04-25 04:15 | 55.83108 | -133.20200 | 37350 ft | 441 kts | 128° |
| 2026-04-25 04:15 | 55.79217 | -133.11739 | 37352 ft | 442 kts | 128° |
| 2026-04-25 04:16 | 55.75325 | -133.03307 | 37352 ft | 442 kts | 128° |
| 2026-04-25 04:16 | 55.71415 | -132.94864 | 37347 ft | 443 kts | 128° |
| 2026-04-25 04:17 | 55.67490 | -132.86420 | 37346 ft | 444 kts | 128° |
| 2026-04-25 04:17 | 55.63562 | -132.77996 | 37345 ft | 444 kts | 128° |
| 2026-04-25 04:18 | 55.59644 | -132.69626 | 37339 ft | 444 kts | 128° |
| 2026-04-25 04:18 | 55.55697 | -132.61222 | 37332 ft | 444 kts | 128° |
| 2026-04-25 04:19 | 55.51743 | -132.52831 | 37322 ft | 445 kts | 128° |
| 2026-04-25 04:19 | 55.47779 | -132.44447 | 37314 ft | 445 kts | 128° |
| 2026-04-25 04:20 | 55.43843 | -132.36153 | 37312 ft | 445 kts | 128° |
| 2026-04-25 04:20 | 55.39993 | -132.28068 | 37303 ft | 445 kts | 128° |
| 2026-04-25 04:21 | 55.36110 | -132.19938 | 37293 ft | 446 kts | 128° |
| 2026-04-25 04:21 | 55.32161 | -132.11698 | 37288 ft | 446 kts | 128° |
| 2026-04-25 04:22 | 55.28251 | -132.03569 | 37292 ft | 447 kts | 128° |
| 2026-04-25 04:22 | 55.24321 | -131.95423 | 37285 ft | 447 kts | 128° |
| 2026-04-25 04:23 | 55.20352 | -131.87225 | 37285 ft | 448 kts | 128° |
| 2026-04-25 04:23 | 55.16328 | -131.78941 | 37280 ft | 449 kts | 128° |
| 2026-04-25 04:24 | 55.12295 | -131.70666 | 37278 ft | 449 kts | 128° |
| 2026-04-25 04:24 | 55.08267 | -131.62425 | 37273 ft | 450 kts | 128° |
| 2026-04-25 04:25 | 55.04052 | -131.54312 | 37270 ft | 452 kts | 133° |
| 2026-04-25 04:25 | 54.99564 | -131.46977 | 37260 ft | 453 kts | 135° |
| 2026-04-25 04:26 | 54.94855 | -131.39470 | 37264 ft | 454 kts | 135° |
| 2026-04-25 04:26 | 54.90249 | -131.32068 | 37243 ft | 454 kts | 134° |
| 2026-04-25 04:27 | 54.85657 | -131.24640 | 37257 ft | 455 kts | 134° |
| 2026-04-25 04:27 | 54.81046 | -131.17183 | 37253 ft | 455 kts | 134° |
| 2026-04-25 04:28 | 54.76469 | -131.09802 | 37251 ft | 456 kts | 134° |
| 2026-04-25 04:28 | 54.71838 | -131.02361 | 37253 ft | 453 kts | 134° |
| 2026-04-25 04:29 | 54.67287 | -130.95078 | 37259 ft | 443 kts | 134° |
| 2026-04-25 04:29 | 54.62771 | -130.87870 | 37276 ft | 442 kts | 134° |
| 2026-04-25 04:30 | 54.58269 | -130.80703 | 37278 ft | 441 kts | 133° |
| 2026-04-25 04:30 | 54.53752 | -130.73536 | 37280 ft | 442 kts | 133° |
| 2026-04-25 04:31 | 54.49226 | -130.66379 | 37281 ft | 443 kts | 133° |
| 2026-04-25 04:31 | 54.44748 | -130.59319 | 37279 ft | 445 kts | 133° |
| 2026-04-25 04:32 | 54.40155 | -130.52102 | 37273 ft | 447 kts | 133° |
| 2026-04-25 04:32 | 54.35555 | -130.44896 | 37271 ft | 449 kts | 133° |
| 2026-04-25 04:33 | 54.30959 | -130.37721 | 37269 ft | 450 kts | 133° |
| 2026-04-25 04:33 | 54.26326 | -130.30510 | 37275 ft | 452 kts | 133° |
| 2026-04-25 04:34 | 54.21710 | -130.23349 | 37271 ft | 453 kts | 133° |
| 2026-04-25 04:34 | 54.17873 | -130.17415 | 37271 ft | 453 kts | 133° |
| 2026-04-25 04:35 | 54.13306 | -130.10369 | 37283 ft | 452 kts | 133° |
| 2026-04-25 04:35 | 54.08672 | -130.03244 | 37289 ft | 452 kts | 133° |
| 2026-04-25 04:36 | 54.04008 | -129.96096 | 37281 ft | 452 kts | 133° |
| 2026-04-25 04:36 | 53.99541 | -129.89269 | 37278 ft | 451 kts | 133° |
| 2026-04-25 04:37 | 53.94861 | -129.82138 | 37263 ft | 451 kts | 133° |
| 2026-04-25 04:37 | 53.90191 | -129.75047 | 37252 ft | 450 kts | 133° |
| 2026-04-25 04:38 | 53.85522 | -129.67979 | 37243 ft | 450 kts | 133° |
| 2026-04-25 04:38 | 53.80844 | -129.60916 | 37238 ft | 451 kts | 133° |
| 2026-04-25 04:39 | 53.76154 | -129.53859 | 37225 ft | 452 kts | 133° |
| 2026-04-25 04:39 | 53.71461 | -129.46819 | 37219 ft | 453 kts | 133° |
| 2026-04-25 04:40 | 53.66756 | -129.39786 | 37210 ft | 454 kts | 133° |
| 2026-04-25 04:40 | 53.62100 | -129.32845 | 37206 ft | 455 kts | 133° |
| 2026-04-25 04:41 | 53.57354 | -129.25791 | 37201 ft | 455 kts | 133° |
| 2026-04-25 04:41 | 53.52667 | -129.18847 | 37179 ft | 456 kts | 133° |
| 2026-04-25 04:42 | 53.47896 | -129.11802 | 37179 ft | 457 kts | 133° |
| 2026-04-25 04:42 | 53.43115 | -129.04764 | 37173 ft | 457 kts | 133° |
| 2026-04-25 04:43 | 53.38323 | -128.97732 | 37180 ft | 457 kts | 133° |
| 2026-04-25 04:43 | 53.33579 | -128.90790 | 37169 ft | 458 kts | 133° |
| 2026-04-25 04:44 | 53.28775 | -128.83784 | 37178 ft | 458 kts | 133° |
| 2026-04-25 04:44 | 53.23977 | -128.76806 | 37189 ft | 457 kts | 133° |
| 2026-04-25 04:45 | 53.19172 | -128.69842 | 37174 ft | 458 kts | 133° |
| 2026-04-25 04:45 | 53.14355 | -128.62879 | 37179 ft | 459 kts | 133° |
| 2026-04-25 04:46 | 53.09530 | -128.55928 | 37174 ft | 459 kts | 133° |
| 2026-04-25 04:46 | 53.04683 | -128.48966 | 37182 ft | 461 kts | 133° |
| 2026-04-25 04:47 | 52.99840 | -128.42034 | 37155 ft | 461 kts | 133° |
| 2026-04-25 04:47 | 52.95025 | -128.35161 | 37204 ft | 460 kts | 133° |
| 2026-04-25 04:48 | 52.90239 | -128.28346 | 37189 ft | 460 kts | 133° |
| 2026-04-25 04:48 | 52.85371 | -128.21439 | 37166 ft | 463 kts | 133° |
| 2026-04-25 04:49 | 52.80475 | -128.14516 | 37139 ft | 464 kts | 133° |
| 2026-04-25 04:49 | 52.75562 | -128.07587 | 37154 ft | 466 kts | 133° |
| 2026-04-25 04:50 | 52.70650 | -128.00674 | 37112 ft | 470 kts | 137° |
| 2026-04-25 04:50 | 52.65648 | -127.93654 | 37173 ft | 475 kts | 137° |
| 2026-04-25 04:51 | 52.60576 | -127.86577 | 37126 ft | 481 kts | 137° |
| 2026-04-25 04:51 | 52.55433 | -127.79421 | 37162 ft | 486 kts | 137° |
| 2026-04-25 04:52 | 52.50253 | -127.72232 | 37167 ft | 489 kts | 137° |
| 2026-04-25 04:52 | 52.45075 | -127.65072 | 37155 ft | 483 kts | 137° |
| 2026-04-25 04:53 | 52.39964 | -127.58025 | 37167 ft | 480 kts | 137° |
| 2026-04-25 04:53 | 52.34855 | -127.51000 | 37166 ft | 478 kts | 138° |
| 2026-04-25 04:54 | 52.29751 | -127.44000 | 37151 ft | 478 kts | 137° |
| 2026-04-25 04:54 | 52.24646 | -127.37023 | 37151 ft | 480 kts | 137° |
| 2026-04-25 04:55 | 52.19494 | -127.30003 | 37137 ft | 488 kts | 138° |
| 2026-04-25 04:55 | 52.14290 | -127.22936 | 37139 ft | 489 kts | 138° |
| 2026-04-25 04:56 | 52.09077 | -127.15880 | 37171 ft | 487 kts | 138° |
| 2026-04-25 04:56 | 52.03877 | -127.08864 | 37156 ft | 484 kts | 138° |
| 2026-04-25 04:57 | 51.98685 | -127.01880 | 37155 ft | 483 kts | 138° |
| 2026-04-25 04:57 | 51.93514 | -126.94946 | 37151 ft | 482 kts | 138° |
| 2026-04-25 04:58 | 51.88331 | -126.88015 | 37164 ft | 485 kts | 138° |
| 2026-04-25 04:58 | 51.83092 | -126.81030 | 37158 ft | 492 kts | 138° |
| 2026-04-25 04:59 | 51.77855 | -126.74072 | 37164 ft | 495 kts | 138° |
| 2026-04-25 04:59 | 51.72630 | -126.67152 | 37158 ft | 496 kts | 138° |
| 2026-04-25 05:00 | 51.67663 | -126.60592 | 37156 ft | 498 kts | 139° |
| 2026-04-25 05:00 | 51.62343 | -126.53589 | 37152 ft | 498 kts | 139° |
| 2026-04-25 05:01 | 51.57018 | -126.46605 | 37159 ft | 497 kts | 139° |
| 2026-04-25 05:01 | 51.51660 | -126.39594 | 37127 ft | 496 kts | 139° |
| 2026-04-25 05:02 | 51.46331 | -126.32643 | 37135 ft | 493 kts | 139° |
| 2026-04-25 05:02 | 51.41013 | -126.25727 | 37155 ft | 490 kts | 139° |
| 2026-04-25 05:03 | 51.35676 | -126.18806 | 37160 ft | 496 kts | 138° |
| 2026-04-25 05:03 | 51.30297 | -126.11854 | 37210 ft | 496 kts | 139° |
| 2026-04-25 05:04 | 51.24890 | -126.04890 | 37124 ft | 500 kts | 138° |
| 2026-04-25 05:04 | 51.19508 | -125.97983 | 37024 ft | 492 kts | 139° |
| 2026-04-25 05:04 | 51.16848 | -125.94575 | 37149 ft | 489 kts | 139° |
| 2026-04-25 05:05 | 51.14191 | -125.91175 | 37044 ft | 490 kts | 139° |
| 2026-04-25 05:05 | 51.11546 | -125.87796 | 37152 ft | 488 kts | 139° |
| 2026-04-25 05:05 | 51.08891 | -125.84409 | 37104 ft | 493 kts | 139° |
| 2026-04-25 05:06 | 51.03539 | -125.77594 | 37126 ft | 498 kts | 139° |
| 2026-04-25 05:06 | 50.98062 | -125.70646 | 37124 ft | 502 kts | 139° |
| 2026-04-25 05:07 | 50.92594 | -125.63732 | 37081 ft | 501 kts | 139° |
| 2026-04-25 05:07 | 50.87205 | -125.56945 | 37104 ft | 493 kts | 139° |
| 2026-04-25 05:08 | 50.81806 | -125.50155 | 37091 ft | 497 kts | 139° |
| 2026-04-25 05:08 | 50.76412 | -125.43391 | 37094 ft | 500 kts | 139° |
| 2026-04-25 05:09 | 50.70951 | -125.36568 | 37101 ft | 500 kts | 139° |
| 2026-04-25 05:09 | 50.65493 | -125.29772 | 37081 ft | 501 kts | 139° |
| 2026-04-25 05:10 | 50.60013 | -125.22969 | 37085 ft | 500 kts | 139° |
| 2026-04-25 05:10 | 50.54550 | -125.16206 | 37089 ft | 499 kts | 138° |
| 2026-04-25 05:11 | 50.49091 | -125.09468 | 37067 ft | 498 kts | 139° |
| 2026-04-25 05:11 | 50.43648 | -125.02771 | 37085 ft | 497 kts | 139° |
| 2026-04-25 05:12 | 50.35499 | -124.92773 | 37076 ft | 493 kts | 139° |
| 2026-04-25 05:12 | 50.30081 | -124.86158 | 37061 ft | 495 kts | 139° |
| 2026-04-25 05:13 | 50.24634 | -124.79524 | 37065 ft | 497 kts | 139° |
| 2026-04-25 05:13 | 50.19234 | -124.72803 | 37071 ft | 496 kts | 134° |
| 2026-04-25 05:14 | 50.14158 | -124.65482 | 37059 ft | 497 kts | 132° |
| 2026-04-25 05:15 | 50.06645 | -124.54369 | 37079 ft | 500 kts | 133° |
| 2026-04-25 05:15 | 50.01543 | -124.46936 | 37044 ft | 497 kts | 133° |
| 2026-04-25 05:16 | 49.96499 | -124.39659 | 37046 ft | 493 kts | 133° |
| 2026-04-25 05:16 | 49.91570 | -124.32571 | 37042 ft | 491 kts | 133° |
| 2026-04-25 05:17 | 49.86555 | -124.25374 | 37064 ft | 494 kts | 133° |
| 2026-04-25 05:17 | 49.81474 | -124.18096 | 37051 ft | 501 kts | 133° |
| 2026-04-25 05:18 | 49.76354 | -124.10797 | 37056 ft | 500 kts | 133° |
| 2026-04-25 05:18 | 49.71237 | -124.03520 | 37058 ft | 500 kts | 133° |
| 2026-04-25 05:19 | 49.66128 | -123.96274 | 37058 ft | 500 kts | 133° |
| 2026-04-25 05:19 | 49.60983 | -123.88998 | 37042 ft | 500 kts | 133° |
| 2026-04-25 05:20 | 49.55857 | -123.81772 | 37032 ft | 499 kts | 133° |
| 2026-04-25 05:20 | 49.50730 | -123.74567 | 37049 ft | 498 kts | 134° |
| 2026-04-25 05:21 | 49.45601 | -123.67376 | 37053 ft | 499 kts | 134° |
| 2026-04-25 05:21 | 49.41329 | -123.61405 | 37051 ft | 499 kts | 134° |
| 2026-04-25 05:22 | 49.36187 | -123.54238 | 37061 ft | 499 kts | 134° |
| 2026-04-25 05:22 | 49.31039 | -123.47083 | 37061 ft | 500 kts | 134° |
| 2026-04-25 05:23 | 49.25882 | -123.39936 | 37058 ft | 500 kts | 134° |
| 2026-04-25 05:23 | 49.20715 | -123.32796 | 37065 ft | 501 kts | 134° |
| 2026-04-25 05:24 | 49.15534 | -123.25657 | 37058 ft | 501 kts | 134° |
| 2026-04-25 05:24 | 49.10356 | -123.18536 | 37058 ft | 501 kts | 133° |
| 2026-04-25 05:25 | 49.05966 | -123.10471 | 37057 ft | 489 kts | 114° |
| 2026-04-25 05:25 | 49.02731 | -123.01389 | 37068 ft | 487 kts | 112° |
| 2026-04-25 05:26 | 48.99564 | -122.92344 | 37065 ft | 488 kts | 113° |
| 2026-04-25 05:26 | 48.96321 | -122.83252 | 37066 ft | 489 kts | 113° |
| 2026-04-25 05:27 | 48.93051 | -122.74208 | 37052 ft | 490 kts | 114° |
| 2026-04-25 05:27 | 48.91398 | -122.69656 | 37207 ft | 487 kts | 114° |
| 2026-04-25 05:27 | 48.89766 | -122.65176 | 37128 ft | 483 kts | 115° |
| 2026-04-25 05:28 | 48.86543 | -122.56354 | 37062 ft | 474 kts | 115° |
| 2026-04-25 05:28 | 48.83346 | -122.47614 | 37060 ft | 472 kts | 115° |
| 2026-04-25 05:29 | 48.80152 | -122.38904 | 37074 ft | 475 kts | 115° |
| 2026-04-25 05:29 | 48.76905 | -122.30075 | 37070 ft | 482 kts | 115° |
| 2026-04-25 05:30 | 48.73627 | -122.21201 | 37081 ft | 483 kts | 115° |
| 2026-04-25 05:30 | 48.70323 | -122.12295 | 37076 ft | 484 kts | 115° |
| 2026-04-25 05:31 | 48.67028 | -122.03440 | 37083 ft | 483 kts | 116° |
| 2026-04-25 05:31 | 48.63726 | -121.94598 | 37089 ft | 482 kts | 116° |
| 2026-04-25 05:32 | 48.60457 | -121.85869 | 37099 ft | 480 kts | 116° |
| 2026-04-25 05:32 | 48.57161 | -121.77096 | 37087 ft | 478 kts | 116° |
| 2026-04-25 05:33 | 48.53885 | -121.68405 | 37087 ft | 476 kts | 116° |
| 2026-04-25 05:33 | 48.50602 | -121.59724 | 37085 ft | 475 kts | 117° |
| 2026-04-25 05:34 | 48.47343 | -121.51135 | 37084 ft | 474 kts | 117° |
| 2026-04-25 05:34 | 48.44056 | -121.42500 | 37071 ft | 473 kts | 117° |
| 2026-04-25 05:35 | 48.40785 | -121.33934 | 37080 ft | 471 kts | 117° |
| 2026-04-25 05:35 | 48.37513 | -121.25394 | 37073 ft | 470 kts | 118° |
| 2026-04-25 05:36 | 48.34238 | -121.16877 | 37077 ft | 471 kts | 118° |
| 2026-04-25 05:36 | 48.30957 | -121.08366 | 37073 ft | 471 kts | 118° |
| 2026-04-25 05:37 | 48.27664 | -120.99853 | 37078 ft | 472 kts | 118° |
| 2026-04-25 05:37 | 48.24352 | -120.91320 | 37073 ft | 473 kts | 118° |
| 2026-04-25 05:38 | 48.21031 | -120.82789 | 37070 ft | 474 kts | 118° |
| 2026-04-25 05:38 | 48.17699 | -120.74258 | 37075 ft | 475 kts | 118° |
| 2026-04-25 05:39 | 48.14346 | -120.65697 | 37071 ft | 476 kts | 118° |
| 2026-04-25 05:39 | 48.11017 | -120.57220 | 37070 ft | 476 kts | 118° |
| 2026-04-25 05:40 | 48.07596 | -120.48750 | 37069 ft | 476 kts | 123° |
| 2026-04-25 05:40 | 48.03198 | -120.41348 | 37076 ft | 478 kts | 133° |
| 2026-04-25 05:41 | 47.98514 | -120.34294 | 37056 ft | 478 kts | 133° |
| 2026-04-25 05:41 | 47.93850 | -120.27226 | 37066 ft | 477 kts | 133° |
| 2026-04-25 05:42 | 47.89217 | -120.20135 | 37055 ft | 477 kts | 133° |
| 2026-04-25 05:42 | 47.84595 | -120.13050 | 37054 ft | 477 kts | 133° |
| 2026-04-25 05:43 | 47.79976 | -120.05987 | 37050 ft | 477 kts | 133° |
| 2026-04-25 05:43 | 47.75340 | -119.98920 | 37058 ft | 477 kts | 133° |
| 2026-04-25 05:44 | 47.70698 | -119.91868 | 37048 ft | 478 kts | 133° |
| 2026-04-25 05:44 | 47.66034 | -119.84800 | 37055 ft | 478 kts | 133° |
| 2026-04-25 05:45 | 47.61370 | -119.77752 | 37053 ft | 479 kts | 133° |
| 2026-04-25 05:45 | 47.56695 | -119.70705 | 37046 ft | 479 kts | 134° |
| 2026-04-25 05:46 | 47.52014 | -119.63669 | 37045 ft | 480 kts | 134° |
| 2026-04-25 05:46 | 47.47356 | -119.56684 | 37047 ft | 480 kts | 134° |
| 2026-04-25 05:47 | 47.42661 | -119.49662 | 37038 ft | 480 kts | 134° |
| 2026-04-25 05:47 | 47.40391 | -119.46044 | 37017 ft | 479 kts | 123° |
| 2026-04-25 05:47 | 47.38840 | -119.41746 | 37071 ft | 474 kts | 108° |
| 2026-04-25 05:47 | 47.38070 | -119.37043 | 37023 ft | 470 kts | 92° |
| 2026-04-25 05:48 | 47.38081 | -119.32254 | 37060 ft | 466 kts | 84° |
| 2026-04-25 05:48 | 47.38586 | -119.22701 | 37055 ft | 467 kts | 83° |
| 2026-04-25 05:49 | 47.39116 | -119.13118 | 37047 ft | 469 kts | 83° |
| 2026-04-25 05:49 | 47.39577 | -119.03511 | 37047 ft | 470 kts | 84° |
| 2026-04-25 05:50 | 47.40000 | -118.93859 | 37055 ft | 471 kts | 84° |
| 2026-04-25 05:50 | 47.40411 | -118.84192 | 37047 ft | 472 kts | 84° |
| 2026-04-25 05:51 | 47.40809 | -118.74665 | 36602 ft | 455 kts | 84° |
| 2026-04-25 05:51 | 47.40999 | -118.70076 | 35865 ft | 449 kts | 84° |
| 2026-04-25 05:51 | 47.41189 | -118.65476 | 34873 ft | 451 kts | 85° |
| 2026-04-25 05:51 | 47.41379 | -118.60832 | 33778 ft | 453 kts | 85° |
| 2026-04-25 05:52 | 47.41568 | -118.56164 | 32469 ft | 456 kts | 85° |
| 2026-04-25 05:52 | 47.41755 | -118.51489 | 31166 ft | 459 kts | 85° |
| 2026-04-25 05:52 | 47.41942 | -118.46768 | 29840 ft | 461 kts | 85° |
| 2026-04-25 05:52 | 47.42125 | -118.42089 | 28305 ft | 463 kts | 85° |
| 2026-04-25 05:53 | 47.42307 | -118.37400 | 26761 ft | 465 kts | 85° |
| 2026-04-25 05:53 | 47.42478 | -118.32941 | 25372 ft | 465 kts | 85° |
| 2026-04-25 05:53 | 47.42853 | -118.28619 | 24124 ft | 461 kts | 75° |
| 2026-04-25 05:53 | 47.43790 | -118.23963 | 22815 ft | 453 kts | 70° |
| 2026-04-25 05:54 | 47.44760 | -118.19654 | 21695 ft | 444 kts | 70° |
| 2026-04-25 05:54 | 47.45692 | -118.15487 | 21001 ft | 427 kts | 71° |
| 2026-04-25 05:54 | 47.47371 | -118.07596 | 20547 ft | 378 kts | 71° |
| 2026-04-25 05:55 | 47.48111 | -118.04006 | 20376 ft | 358 kts | 71° |
| 2026-04-25 05:55 | 47.48818 | -118.00552 | 20200 ft | 340 kts | 71° |
| 2026-04-25 05:55 | 47.49703 | -117.97411 | 19870 ft | 324 kts | 53° |
| 2026-04-25 05:55 | 47.51243 | -117.95103 | 19488 ft | 311 kts | 30° |
| 2026-04-25 05:56 | 47.53214 | -117.93946 | 18962 ft | 305 kts | 7° |
| 2026-04-25 05:56 | 47.55263 | -117.94187 | 18715 ft | 289 kts | 338° |
| 2026-04-25 05:56 | 47.56842 | -117.95853 | 18447 ft | 278 kts | 307° |
| 2026-04-25 05:56 | 47.57568 | -117.98477 | 17854 ft | 280 kts | 274° |
| 2026-04-25 05:57 | 47.57195 | -118.01285 | 17244 ft | 283 kts | 241° |
| 2026-04-25 05:57 | 47.55832 | -118.03354 | 16685 ft | 285 kts | 208° |
| 2026-04-25 05:57 | 47.53926 | -118.04009 | 16130 ft | 286 kts | 174° |
| 2026-04-25 05:57 | 47.52082 | -118.03039 | 15586 ft | 283 kts | 140° |
| 2026-04-25 05:58 | 47.50877 | -118.00795 | 15085 ft | 277 kts | 112° |
| 2026-04-25 05:58 | 47.50289 | -117.98121 | 14628 ft | 273 kts | 98° |
| 2026-04-25 05:58 | 47.50152 | -117.95352 | 14164 ft | 269 kts | 84° |
| 2026-04-25 05:58 | 47.50381 | -117.92667 | 13731 ft | 266 kts | 83° |
| 2026-04-25 05:59 | 47.50287 | -117.89908 | 13216 ft | 267 kts | 100° |
| 2026-04-25 05:59 | 47.49655 | -117.87366 | 12738 ft | 268 kts | 118° |
| 2026-04-25 05:59 | 47.48489 | -117.85231 | 12261 ft | 268 kts | 139° |
| 2026-04-25 05:59 | 47.46915 | -117.83767 | 11799 ft | 268 kts | 156° |
| 2026-04-25 06:00 | 47.45121 | -117.83099 | 11311 ft | 267 kts | 180° |
| 2026-04-25 06:00 | 47.43318 | -117.83655 | 10845 ft | 264 kts | 206° |
| 2026-04-25 06:00 | 47.41785 | -117.85100 | 10413 ft | 261 kts | 222° |
| 2026-04-25 06:00 | 47.40554 | -117.87041 | 9960 ft | 258 kts | 238° |
| 2026-04-25 06:01 | 47.39813 | -117.89404 | 9480 ft | 253 kts | 255° |
| 2026-04-25 06:01 | 47.39309 | -117.91859 | 9152 ft | 248 kts | 255° |
| 2026-04-25 06:01 | 47.38814 | -117.94278 | 8890 ft | 245 kts | 255° |
| 2026-04-25 06:01 | 47.38319 | -117.96681 | 8632 ft | 246 kts | 255° |
| 2026-04-25 06:02 | 47.37857 | -117.99124 | 8366 ft | 250 kts | 265° |
| 2026-04-25 06:02 | 47.38171 | -118.01660 | 8118 ft | 260 kts | 302° |
| 2026-04-25 06:02 | 47.39463 | -118.03519 | 7875 ft | 264 kts | 333° |
| 2026-04-25 06:02 | 47.41223 | -118.04199 | 7613 ft | 264 kts | 0° |
| 2026-04-25 06:03 | 47.42982 | -118.03563 | 7358 ft | 263 kts | 28° |
| 2026-04-25 06:03 | 47.44434 | -118.01918 | 7127 ft | 263 kts | 43° |
| 2026-04-25 06:03 | 47.45719 | -118.00033 | 6875 ft | 264 kts | 45° |
| 2026-04-25 06:03 | 47.47017 | -117.98103 | 6621 ft | 264 kts | 44° |
| 2026-04-25 06:04 | 47.48324 | -117.96192 | 6370 ft | 263 kts | 44° |
| 2026-04-25 06:04 | 47.49611 | -117.94297 | 6090 ft | 260 kts | 50° |
| 2026-04-25 06:04 | 47.50431 | -117.91947 | 5812 ft | 257 kts | 76° |
| 2026-04-25 06:04 | 47.50724 | -117.89343 | 5568 ft | 258 kts | 83° |
| 2026-04-25 06:05 | 47.50951 | -117.86696 | 5314 ft | 260 kts | 83° |
| 2026-04-25 06:05 | 47.51176 | -117.84039 | 5060 ft | 261 kts | 83° |
| 2026-04-25 06:05 | 47.51407 | -117.81379 | 4802 ft | 261 kts | 83° |
| 2026-04-25 06:05 | 47.51644 | -117.78719 | 4600 ft | 258 kts | 83° |
| 2026-04-25 06:06 | 47.51875 | -117.76158 | 4473 ft | 248 kts | 83° |
| 2026-04-25 06:06 | 47.52101 | -117.73672 | 4399 ft | 238 kts | 83° |
| 2026-04-25 06:06 | 47.52316 | -117.71298 | 4359 ft | 227 kts | 83° |
| 2026-04-25 06:06 | 47.52522 | -117.69027 | 4353 ft | 220 kts | 83° |
| 2026-04-25 06:07 | 47.53060 | -117.66957 | 4348 ft | 219 kts | 51° |
| 2026-04-25 06:07 | 47.54125 | -117.65293 | 4188 ft | 226 kts | 46° |
| 2026-04-25 06:07 | 47.55212 | -117.63684 | 3974 ft | 217 kts | 45° |
| 2026-04-25 06:07 | 47.56255 | -117.62134 | 3695 ft | 206 kts | 45° |
| 2026-04-25 06:08 | 47.57231 | -117.60694 | 3454 ft | 190 kts | 46° |
| 2026-04-25 06:08 | 47.58114 | -117.59366 | 3209 ft | 175 kts | 46° |
| 2026-04-25 06:08 | 47.58969 | -117.58055 | 2976 ft | 178 kts | 47° |
| 2026-04-25 06:08 | 47.59789 | -117.56810 | 2738 ft | 160 kts | 46° |
| 2026-04-25 06:09 | 47.60549 | -117.55691 | 2507 ft | 150 kts | 45° |
| 2026-04-25 06:09 | 47.61286 | -117.54599 | 2397 ft | 148 kts | 46° |
| 2026-04-25 06:09 | 47.61960 | -117.53523 | 2368 ft | 133 kts | 49° |
| 2026-04-25 06:09 | 47.62468 | -117.52779 | 2353 ft | 51 kts | 44° |
| 2026-04-25 06:10 | 47.62657 | -117.52503 | 2345 ft | 28 kts | 44° |
| 2026-04-25 06:10 | 47.62769 | -117.52519 | 2344 ft | 16 kts | 311° |
| 2026-04-25 06:10 | 47.62837 | -117.52645 | 2344 ft | 16 kts | 270° |
| 2026-04-25 06:10 | 47.62770 | -117.52764 | 2347 ft | 15 kts | 225° |
| 2026-04-25 06:11 | 47.62698 | -117.52872 | 2349 ft | 14 kts | 225° |